Time;durP1;ratioP1;P1;durP2;ratioP2;P2;SDS_P1;SDS_P2;PMS_P1;PMS_P2;Temp;Humidity;BMP_temperature;BMP_pressure;BME280_temperature;BME280_humidity;BME280_pressure;Samples;Min_cycle;Max_cycle;Signal;HPM_P1;HPM_P2
2022/04/26 03:37:17;;;;;;;60.65;37.80;;;9.90;99.90;;;;;;5012566;28;20451;-75
2022/04/26 03:39:43;;;;;;;68.25;40.05;;;9.80;99.90;;;;;;5011748;28;20401;-75
2022/04/26 03:42:08;;;;;;;62.67;37.30;;;9.90;99.90;;;;;;5010519;28;20641;-75
2022/04/26 03:44:34;;;;;;;53.87;34.20;;;9.90;99.90;;;;;;5012815;28;20774;-76
2022/04/26 03:47:00;;;;;;;58.00;33.37;;;10.00;99.90;;;;;;5011997;28;20429;-76
2022/04/26 03:49:25;;;;;;;53.30;33.93;;;10.00;99.90;;;;;;5012579;28;20404;-75
2022/04/26 03:51:52;;;;;;;51.93;31.53;;;10.00;99.90;;;;;;5011538;28;20408;-75
2022/04/26 03:54:21;;;;;;;47.05;30.08;;;10.00;99.90;;;;;;5012294;28;20392;-75
2022/04/26 03:56:47;;;;;;;44.53;29.80;;;10.00;99.20;;;;;;5013997;28;20400;-75
2022/04/26 03:59:13;;;;;;;40.93;27.70;;;10.00;97.30;;;;;;5013503;28;20405;-75
2022/04/26 04:01:39;;;;;;;44.97;27.70;;;10.00;95.70;;;;;;5013443;28;20488;-75
2022/04/26 04:04:05;;;;;;;44.90;26.52;;;10.00;92.20;;;;;;5012430;28;20512;-75
2022/04/26 04:06:30;;;;;;;42.30;25.90;;;10.00;92.30;;;;;;5012691;28;20444;-75
2022/04/26 04:08:56;;;;;;;44.50;26.73;;;9.90;91.40;;;;;;5013872;28;20404;-74
2022/04/26 04:11:22;;;;;;;45.03;25.60;;;9.90;93.70;;;;;;5012714;28;20421;-75
2022/04/26 04:13:47;;;;;;;43.47;27.87;;;9.90;91.50;;;;;;5012928;28;20791;-75
2022/04/26 04:16:13;;;;;;;46.10;26.88;;;9.90;94.60;;;;;;5013635;28;20463;-75
2022/04/26 04:21:23;;;;;;;42.30;25.67;;;9.80;91.30;;;;;;5011205;28;21942;-75
2022/04/26 04:23:49;;;;;;;44.88;24.65;;;9.80;93.70;;;;;;5026861;23;20413;-71
2022/04/26 04:26:14;;;;;;;41.92;25.77;;;9.70;92.60;;;;;;5000789;28;20407;-73
2022/04/26 04:28:40;;;;;;;41.47;25.85;;;9.60;93.70;;;;;;5009484;28;20396;-74
2022/04/26 04:31:06;;;;;;;43.95;25.02;;;9.60;97.50;;;;;;5002945;28;20417;-73
2022/04/26 04:33:31;;;;;;;42.33;24.42;;;9.70;96.50;;;;;;5005672;28;20475;-74
2022/04/26 04:35:57;;;;;;;41.50;24.33;;;9.70;92.70;;;;;;5008412;28;20393;-73
2022/04/26 04:38:22;;;;;;;42.35;22.95;;;9.70;92.60;;;;;;5012241;28;20885;-73
2022/04/26 04:40:48;;;;;;;40.75;24.63;;;9.70;90.60;;;;;;5020344;28;20396;-74
2022/04/26 04:43:14;;;;;;;42.93;25.07;;;9.70;92.20;;;;;;5012826;28;20423;-73
2022/04/26 04:45:40;;;;;;;43.60;26.30;;;9.70;93.40;;;;;;5011028;28;20426;-72
2022/04/26 04:48:06;;;;;;;40.95;24.90;;;9.70;94.40;;;;;;5010889;28;20405;-72
2022/04/26 04:50:35;;;;;;;41.33;25.00;;;9.70;93.90;;;;;;5012818;28;20558;-73
2022/04/26 04:53:01;;;;;;;44.70;26.10;;;9.70;91.10;;;;;;5012461;28;20415;-73
2022/04/26 04:55:27;;;;;;;41.78;26.30;;;9.70;91.80;;;;;;5016576;28;20846;-74
2022/04/26 04:57:53;;;;;;;45.65;24.98;;;9.60;92.00;;;;;;5015242;28;20397;-73
2022/04/26 05:00:19;;;;;;;48.75;27.67;;;9.60;93.90;;;;;;5012570;28;20408;-73
2022/04/26 05:02:44;;;;;;;42.95;27.38;;;9.60;94.40;;;;;;5012871;28;20393;-73
2022/04/26 05:05:11;;;;;;;39.50;25.53;;;9.60;96.50;;;;;;5011400;28;20400;-73
2022/04/26 05:07:37;;;;;;;39.80;23.80;;;9.60;95.00;;;;;;5011119;28;20458;-74
2022/04/26 05:10:06;;;;;;;38.08;21.25;;;9.70;94.00;;;;;;5010070;28;20408;-73
2022/04/26 05:12:33;;;;;;;31.03;20.13;;;9.70;84.40;;;;;;5009118;28;20400;-73
2022/04/26 05:14:58;;;;;;;33.87;17.73;;;9.60;85.10;;;;;;5010682;28;20539;-73
2022/04/26 05:17:27;;;;;;;33.92;19.17;;;9.40;80.70;;;;;;5013008;28;20459;-73
2022/04/26 05:19:52;;;;;;;29.60;18.50;;;9.40;83.00;;;;;;5011124;28;20473;-73
2022/04/26 05:22:18;;;;;;;31.63;18.90;;;9.40;83.70;;;;;;5011279;28;20412;-74
2022/04/26 05:24:58;;;;;;;32.72;17.60;;;9.40;85.80;;;;;;5012835;28;20935;-73
2022/04/26 05:27:28;;;;;;;34.17;19.27;;;9.50;84.30;;;;;;5014758;28;20391;-73
2022/04/26 05:29:55;;;;;;;28.40;16.90;;;9.50;84.20;;;;;;5011606;28;20418;-73
2022/04/26 05:32:28;;;;;;;34.95;17.30;;;9.50;78.90;;;;;;5013592;28;20427;-73
2022/04/26 05:34:59;;;;;;;28.13;16.40;;;9.40;81.30;;;;;;5014179;28;20821;-73
2022/04/26 05:37:29;;;;;;;31.58;17.75;;;9.40;80.60;;;;;;5015862;28;20399;-74
2022/04/26 05:39:55;;;;;;;31.27;17.90;;;9.30;83.40;;;;;;5014863;28;20495;-73
2022/04/26 05:42:21;;;;;;;35.33;17.48;;;9.30;84.20;;;;;;5013299;28;20411;-74
2022/04/26 05:44:47;;;;;;;31.33;17.58;;;9.20;83.60;;;;;;5012160;28;20400;-73
2022/04/26 05:47:13;;;;;;;32.00;18.00;;;9.20;84.50;;;;;;5013460;28;20420;-73
2022/04/26 05:49:38;;;;;;;31.17;17.33;;;9.10;81.30;;;;;;5017089;28;20404;-73
2022/04/26 05:52:04;;;;;;;29.67;16.27;;;9.10;83.50;;;;;;5010268;28;20409;-73
2022/04/26 05:54:31;;;;;;;33.05;18.05;;;9.00;82.70;;;;;;5009453;28;20409;-75
2022/04/26 05:56:57;;;;;;;35.95;19.08;;;9.00;83.90;;;;;;5011841;28;20389;-75
2022/04/26 05:59:23;;;;;;;34.78;17.63;;;9.10;84.60;;;;;;5011102;28;20408;-74
2022/04/26 06:01:49;;;;;;;27.05;16.77;;;9.10;83.50;;;;;;5014831;28;20404;-74
2022/04/26 06:04:15;;;;;;;34.50;18.20;;;9.10;81.60;;;;;;5014064;28;21130;-74
2022/04/26 06:06:41;;;;;;;41.63;17.65;;;9.10;83.00;;;;;;5013586;28;20458;-74
2022/04/26 06:09:07;;;;;;;32.40;16.03;;;9.20;83.30;;;;;;5012401;28;20508;-74
2022/04/26 06:11:33;;;;;;;34.30;18.57;;;9.20;77.60;;;;;;5016217;28;20894;-76
2022/04/26 06:14:00;;;;;;;30.48;16.88;;;9.20;80.00;;;;;;5011202;28;20511;-73
2022/04/26 06:16:26;;;;;;;34.00;17.90;;;9.20;76.90;;;;;;5010501;28;20552;-74
2022/04/26 06:18:51;;;;;;;31.48;17.33;;;9.20;79.10;;;;;;5008378;28;20413;-74
2022/04/26 06:21:17;;;;;;;31.42;18.10;;;9.20;77.50;;;;;;4997080;28;20434;-74
2022/04/26 06:23:42;;;;;;;32.78;18.10;;;9.20;79.40;;;;;;5010660;28;20501;-74
2022/04/26 06:26:08;;;;;;;35.65;18.67;;;9.30;78.10;;;;;;5009797;28;20424;-73
2022/04/26 06:28:34;;;;;;;33.95;18.92;;;9.40;74.50;;;;;;5007435;28;20412;-73
2022/04/26 06:31:00;;;;;;;39.33;21.40;;;9.60;74.80;;;;;;5008884;28;20416;-74
2022/04/26 06:33:26;;;;;;;38.92;21.00;;;9.80;71.90;;;;;;5009284;28;20385;-74
2022/04/26 06:35:52;;;;;;;34.53;17.83;;;9.90;68.30;;;;;;5007657;28;20404;-75
2022/04/26 06:38:18;;;;;;;31.55;17.92;;;9.80;64.60;;;;;;5008158;28;20427;-74
2022/04/26 06:40:46;;;;;;;34.30;16.92;;;9.70;66.10;;;;;;5004261;28;20444;-74
2022/04/26 06:43:11;;;;;;;39.10;20.07;;;9.50;65.90;;;;;;5008815;28;20496;-74
2022/04/26 06:45:37;;;;;;;35.72;19.58;;;9.60;70.40;;;;;;5014179;28;20444;-75
2022/04/26 06:48:10;;;;;;;34.92;18.48;;;9.60;69.90;;;;;;5016740;28;20417;-74
2022/04/26 06:50:36;;;;;;;41.75;20.35;;;9.70;68.70;;;;;;5005851;28;20951;-74
2022/04/26 06:53:02;;;;;;;40.42;19.50;;;9.70;69.30;;;;;;5007468;28;20507;-76
2022/04/26 06:55:27;;;;;;;43.05;22.98;;;9.60;66.90;;;;;;5008866;28;20495;-79
2022/04/26 06:57:53;;;;;;;45.13;22.98;;;9.70;67.70;;;;;;5011102;28;20404;-74
2022/04/26 07:00:19;;;;;;;46.90;23.83;;;9.70;68.90;;;;;;5004292;28;20415;-74
2022/04/26 07:02:45;;;;;;;47.50;24.35;;;9.60;70.10;;;;;;5011341;28;20415;-74
2022/04/26 07:05:15;;;;;;;43.55;23.63;;;9.80;69.60;;;;;;5024775;28;20430;-75
2022/04/26 07:07:41;;;;;;;45.42;22.67;;;9.90;69.30;;;;;;5009666;28;20404;-74
2022/04/26 07:10:08;;;;;;;45.20;24.33;;;9.70;70.50;;;;;;5007906;28;20391;-74
2022/04/26 07:12:34;;;;;;;48.28;27.25;;;9.80;70.70;;;;;;5012571;28;20419;-74
2022/04/26 07:15:00;;;;;;;52.10;26.75;;;10.00;71.10;;;;;;5006836;28;20493;-72
2022/04/26 07:17:26;;;;;;;47.40;27.83;;;10.20;67.60;;;;;;5010525;28;20408;-76
2022/04/26 07:19:52;;;;;;;54.87;30.13;;;10.30;67.60;;;;;;5009059;28;20758;-73
2022/04/26 07:22:17;;;;;;;62.22;27.83;;;10.20;66.00;;;;;;5001983;28;21100;-73
2022/04/26 07:24:44;;;;;;;58.53;31.10;;;10.00;63.80;;;;;;5009770;28;20419;-71
2022/04/26 07:27:10;;;;;;;62.88;32.53;;;10.20;66.40;;;;;;5010350;28;20841;-73
2022/04/26 07:29:40;;;;;;;71.25;37.75;;;10.10;65.60;;;;;;5012654;28;20910;-73
2022/04/26 07:32:07;;;;;;;65.10;34.55;;;10.10;65.30;;;;;;5013183;28;20420;-73
2022/04/26 07:34:33;;;;;;;69.45;35.40;;;10.30;64.80;;;;;;5009654;28;20408;-73
2022/04/26 07:37:01;;;;;;;64.90;33.53;;;10.40;67.10;;;;;;5015289;28;20401;-73
2022/04/26 07:39:28;;;;;;;73.03;38.53;;;10.40;61.80;;;;;;5023367;28;20415;-74
2022/04/26 07:41:54;;;;;;;65.55;36.20;;;10.50;64.30;;;;;;5016789;28;20412;-73
2022/04/26 07:44:20;;;;;;;68.80;38.22;;;10.80;62.30;;;;;;5013204;28;20438;-74
2022/04/26 07:46:48;;;;;;;71.57;37.53;;;10.80;59.60;;;;;;5019630;28;20415;-74
2022/04/26 07:49:15;;;;;;;80.93;44.47;;;10.60;60.20;;;;;;5011807;28;20768;-74
2022/04/26 07:51:42;;;;;;;73.93;40.95;;;10.60;63.60;;;;;;5012792;28;20409;-73
2022/04/26 07:54:09;;;;;;;80.90;40.85;;;10.60;60.80;;;;;;5014478;28;20424;-74
2022/04/26 07:56:35;;;;;;;76.25;37.92;;;10.60;62.00;;;;;;5009399;28;20436;-76
2022/04/26 07:59:02;;;;;;;80.38;39.05;;;10.40;60.70;;;;;;5014814;28;20397;-72
2022/04/26 08:01:28;;;;;;;73.40;40.28;;;10.40;63.70;;;;;;5012341;28;20405;-73
2022/04/26 08:03:54;;;;;;;69.80;40.10;;;10.50;64.90;;;;;;5007374;28;20439;-73
2022/04/26 08:06:20;;;;;;;70.68;38.35;;;10.80;61.30;;;;;;5006226;28;20497;-74
2022/04/26 08:08:46;;;;;;;63.88;35.45;;;10.70;60.10;;;;;;5001154;28;20563;-73
2022/04/26 08:11:13;;;;;;;73.43;37.75;;;10.60;60.50;;;;;;5004111;28;20439;-73
2022/04/26 08:13:40;;;;;;;59.35;35.10;;;10.50;63.20;;;;;;5007969;28;20401;-73
2022/04/26 08:16:06;;;;;;;67.30;38.38;;;10.40;61.60;;;;;;5008262;28;20411;-72
2022/04/26 08:18:32;;;;;;;65.03;36.55;;;10.60;63.70;;;;;;5011493;28;20393;-73
2022/04/26 08:20:58;;;;;;;60.28;37.60;;;10.80;60.90;;;;;;5007682;28;20415;-74
2022/04/26 08:23:23;;;;;;;56.73;34.30;;;10.90;59.80;;;;;;5009520;28;20468;-73
2022/04/26 08:28:33;;;;;;;55.53;34.13;;;11.00;58.00;;;;;;5011840;28;20391;-76
2022/04/26 08:31:00;;;;;;;53.33;31.20;;;11.30;57.00;;;;;;5012635;28;20405;-73
2022/04/26 08:33:27;;;;;;;52.90;33.88;;;11.50;54.20;;;;;;5007833;28;20412;-73
2022/04/26 08:35:53;;;;;;;57.13;34.97;;;11.70;54.20;;;;;;5010853;28;20893;-73
2022/04/26 08:38:18;;;;;;;52.80;34.55;;;11.70;51.80;;;;;;5012667;28;20411;-74
2022/04/26 08:40:44;;;;;;;61.78;33.50;;;11.80;51.90;;;;;;5012571;28;20483;-75
2022/04/26 08:43:10;;;;;;;45.50;28.50;;;11.70;53.10;;;;;;5010781;28;20401;-73
2022/04/26 08:45:40;;;;;;;47.90;30.65;;;11.80;51.40;;;;;;5008281;28;20406;-74
2022/04/26 08:50:59;;;;;;;60.33;38.35;;;11.40;54.80;;;;;;5013282;28;20432;-73
2022/04/26 08:53:26;;;;;;;61.80;37.72;;;11.30;57.00;;;;;;5013359;28;20425;-74
2022/04/26 08:55:54;;;;;;;66.45;38.92;;;11.40;55.10;;;;;;5010591;28;20412;-75
2022/04/26 08:58:21;;;;;;;59.37;36.80;;;11.20;55.20;;;;;;5015114;28;20487;-73
2022/04/26 09:01:10;;;;;;;61.67;37.60;;;11.10;54.60;;;;;;5011924;28;20405;-73
2022/04/26 09:04:10;;;;;;;61.58;35.55;;;11.20;54.60;;;;;;5011589;28;20457;-73
2022/04/26 09:06:36;;;;;;;55.50;33.08;;;11.30;53.60;;;;;;5014029;28;20489;-72
2022/04/26 09:09:22;;;;;;;55.00;34.78;;;11.30;53.90;;;;;;5021453;28;20400;-74
2022/04/26 09:11:48;;;;;;;51.33;32.40;;;11.40;53.10;;;;;;5016639;28;20408;-73
2022/04/26 09:14:41;;;;;;;51.67;30.25;;;11.60;52.30;;;;;;5020461;28;20417;-73
2022/04/26 09:17:12;;;;;;;44.15;28.30;;;11.90;49.60;;;;;;5018563;28;20396;-73
2022/04/26 09:19:44;;;;;;;43.80;25.77;;;12.00;49.80;;;;;;5013917;28;20421;-73
2022/04/26 09:22:18;;;;;;;40.73;26.23;;;12.20;47.40;;;;;;5016661;28;20401;-74
2022/04/26 09:24:59;;;;;;;40.80;24.30;;;12.20;47.50;;;;;;5009883;28;20421;-72
2022/04/26 09:27:25;;;;;;;42.15;27.73;;;12.20;47.20;;;;;;5010933;28;20770;-74
2022/04/26 09:29:51;;;;;;;40.67;27.85;;;12.50;48.10;;;;;;5010550;28;20408;-72
2022/04/26 09:32:17;;;;;;;45.78;28.38;;;12.80;47.00;;;;;;5008480;28;20412;-73
2022/04/26 09:34:43;;;;;;;42.55;28.73;;;12.90;41.70;;;;;;5009997;28;20412;-74
2022/04/26 09:37:08;;;;;;;49.70;30.07;;;12.80;43.00;;;;;;5009217;28;20397;-74
2022/04/26 09:39:34;;;;;;;45.03;30.33;;;12.60;45.80;;;;;;5010637;28;20401;-74
2022/04/26 09:42:00;;;;;;;46.50;31.15;;;12.60;44.80;;;;;;5008223;28;20404;-74
2022/04/26 09:44:35;;;;;;;47.28;33.05;;;12.50;46.60;;;;;;5007569;28;20475;-74
2022/04/26 09:47:01;;;;;;;50.65;32.13;;;12.70;47.30;;;;;;5008568;28;20416;-72
2022/04/26 09:49:35;;;;;;;46.60;32.38;;;13.30;42.70;;;;;;5009854;28;20492;-74
2022/04/26 09:52:01;;;;;;;48.63;32.72;;;13.50;41.50;;;;;;5009767;28;20408;-73
2022/04/26 09:54:29;;;;;;;47.65;31.35;;;13.80;38.70;;;;;;5008953;28;20401;-73
2022/04/26 09:56:55;;;;;;;52.65;34.22;;;13.50;38.70;;;;;;5006257;28;20826;-73
2022/04/26 09:59:29;;;;;;;46.83;33.00;;;13.40;38.50;;;;;;5010131;28;20460;-73
2022/04/26 10:01:56;;;;;;;49.40;34.30;;;13.10;39.70;;;;;;5009662;28;20424;-73
2022/04/26 10:04:24;;;;;;;43.42;32.22;;;13.20;42.00;;;;;;5010017;28;20403;-73
2022/04/26 10:06:53;;;;;;;49.95;34.35;;;13.40;38.80;;;;;;5007464;28;20414;-74
2022/04/26 10:09:19;;;;;;;45.97;31.00;;;13.70;38.20;;;;;;5007175;28;20459;-74
2022/04/26 10:11:44;;;;;;;44.15;32.00;;;14.40;35.90;;;;;;5008381;28;20416;-73
2022/04/26 10:14:11;;;;;;;47.55;33.00;;;14.90;32.00;;;;;;5008259;28;20405;-74
2022/04/26 10:16:38;;;;;;;47.25;34.30;;;15.20;31.00;;;;;;5007584;28;20420;-73
2022/04/26 10:19:09;;;;;;;50.80;37.50;;;15.70;31.30;;;;;;5010288;28;20480;-72
2022/04/26 10:21:38;;;;;;;50.25;37.03;;;15.90;27.00;;;;;;5007015;28;20920;-73
2022/04/26 10:24:25;;;;;;;56.03;40.45;;;15.80;27.70;;;;;;5011330;28;20440;-74
2022/04/26 10:27:23;;;;;;;45.28;32.40;;;15.80;27.50;;;;;;5014108;28;20616;-74
2022/04/26 10:29:49;;;;;;;43.00;31.60;;;15.20;28.00;;;;;;5010707;28;20401;-74
2022/04/26 10:32:42;;;;;;;41.63;30.17;;;15.40;28.10;;;;;;5008762;28;20425;-74
2022/04/26 10:35:26;;;;;;;43.53;31.17;;;15.60;27.70;;;;;;5010988;28;20447;-74
2022/04/26 10:38:08;;;;;;;40.58;30.35;;;15.70;29.60;;;;;;5013235;28;20412;-76
2022/04/26 10:41:05;;;;;;;39.33;28.63;;;16.10;25.80;;;;;;5013804;28;20415;-75
2022/04/26 10:43:31;;;;;;;39.45;26.80;;;16.70;26.10;;;;;;5014971;28;20404;-75
2022/04/26 10:46:10;;;;;;;36.75;27.05;;;16.60;24.00;;;;;;5015181;28;20392;-75
2022/04/26 10:48:35;;;;;;;37.42;29.05;;;16.20;25.80;;;;;;5014435;28;20401;-74
2022/04/26 10:51:31;;;;;;;38.33;28.05;;;16.30;26.20;;;;;;5011730;28;20963;-75
2022/04/26 10:53:56;;;;;;;43.13;27.35;;;16.50;25.00;;;;;;5008908;28;20432;-74
2022/04/26 10:56:22;;;;;;;38.30;28.50;;;15.80;28.70;;;;;;5017741;28;20398;-74
2022/04/26 10:58:54;;;;;;;42.58;28.17;;;15.60;29.10;;;;;;5015375;28;20459;-74
2022/04/26 11:01:29;;;;;;;36.80;27.23;;;15.40;30.00;;;;;;5010978;28;20408;-73
2022/04/26 11:03:57;;;;;;;44.00;29.17;;;15.30;30.10;;;;;;5012654;28;20400;-73
2022/04/26 11:06:37;;;;;;;38.73;28.40;;;15.20;30.20;;;;;;5009875;28;20411;-74
2022/04/26 11:09:10;;;;;;;42.03;29.30;;;15.50;30.60;;;;;;5012654;28;20389;-74
2022/04/26 11:11:55;;;;;;;38.25;29.00;;;16.00;28.30;;;;;;5012469;28;20463;-74
2022/04/26 11:14:22;;;;;;;38.80;28.27;;;16.10;28.00;;;;;;5010989;28;20931;-74
2022/04/26 11:16:58;;;;;;;42.58;29.27;;;16.30;28.10;;;;;;5013124;28;20950;-75
2022/04/26 11:19:29;;;;;;;41.75;30.95;;;15.80;28.50;;;;;;5012058;28;20894;-73
2022/04/26 11:21:56;;;;;;;40.65;29.05;;;15.60;29.60;;;;;;5011614;28;20402;-74
2022/04/26 11:29:52;;;;;;;38.93;28.23;;;16.00;28.60;;;;;;5011194;28;20522;-74
2022/04/26 11:32:31;;;;;;;33.05;26.70;;;16.30;28.50;;;;;;5011338;28;20422;-74
2022/04/26 11:34:57;;;;;;;39.78;27.67;;;16.70;26.40;;;;;;5011450;28;20765;-74
2022/04/26 11:37:23;;;;;;;39.10;26.73;;;16.70;26.10;;;;;;5011755;28;20393;-73
2022/04/26 11:39:49;;;;;;;34.93;25.73;;;16.90;25.00;;;;;;5011566;28;20511;-73
2022/04/26 11:42:16;;;;;;;34.90;26.00;;;16.80;26.00;;;;;;5011429;28;21554;-75
2022/04/26 11:45:01;;;;;;;35.67;26.23;;;17.10;26.80;;;;;;5012098;28;20405;-73
2022/04/26 11:47:44;;;;;;;33.17;22.70;;;17.60;23.50;;;;;;5012640;28;20397;-73
2022/04/26 11:50:10;;;;;;;31.25;21.25;;;16.80;24.60;;;;;;5012714;28;20475;-72
2022/04/26 11:52:36;;;;;;;32.05;21.70;;;16.30;26.00;;;;;;5013204;28;20526;-73
2022/04/26 11:55:02;;;;;;;33.17;23.20;;;15.80;26.10;;;;;;5011667;28;20857;-74
2022/04/26 11:57:27;;;;;;;29.60;23.23;;;15.90;25.70;;;;;;5012693;28;20495;-75
2022/04/26 11:59:53;;;;;;;34.27;22.93;;;16.00;26.30;;;;;;5013090;28;20397;-77
2022/04/26 12:02:19;;;;;;;32.70;23.53;;;15.60;27.30;;;;;;5010390;28;20422;-75
2022/04/26 12:04:45;;;;;;;34.47;24.35;;;15.70;27.50;;;;;;5013572;28;20408;-74
2022/04/26 12:07:11;;;;;;;31.80;21.80;;;15.80;26.90;;;;;;5010874;28;20531;-75
2022/04/26 12:09:36;;;;;;;29.92;20.35;;;15.90;25.60;;;;;;5012877;28;20460;-75
2022/04/26 12:12:04;;;;;;;28.98;20.42;;;16.00;25.90;;;;;;5012592;28;20511;-75
2022/04/26 12:14:30;;;;;;;33.33;21.60;;;15.90;25.20;;;;;;5023468;28;20427;-76
2022/04/26 12:16:56;;;;;;;32.28;22.23;;;16.20;25.80;;;;;;5022809;28;20889;-75
2022/04/26 12:19:36;;;;;;;35.58;24.15;;;16.70;23.40;;;;;;5020438;28;20406;-75
2022/04/26 12:22:02;;;;;;;33.38;23.65;;;17.00;21.80;;;;;;5011199;28;20713;-76
2022/04/26 12:24:30;;;;;;;33.03;23.05;;;17.30;22.10;;;;;;5010621;28;20530;-77
2022/04/26 12:27:02;;;;;;;33.63;23.30;;;16.80;21.70;;;;;;5011518;28;20463;-77
2022/04/26 12:29:29;;;;;;;33.73;23.60;;;16.70;21.70;;;;;;5009466;28;20405;-75
2022/04/26 12:31:55;;;;;;;28.20;22.53;;;16.70;22.00;;;;;;5011390;28;20470;-75
2022/04/26 12:34:29;;;;;;;32.97;21.35;;;17.00;20.20;;;;;;5009974;28;20507;-74
2022/04/26 12:37:08;;;;;;;30.13;20.92;;;17.00;20.90;;;;;;5010078;28;20401;-75
2022/04/26 12:39:43;;;;;;;30.30;19.57;;;17.10;20.10;;;;;;5017428;28;20456;-75
2022/04/26 12:42:31;;;;;;;26.92;19.00;;;16.80;22.10;;;;;;5008558;28;20458;-75
2022/04/26 12:45:00;;;;;;;37.00;24.48;;;16.50;22.40;;;;;;5009357;28;20408;-74
2022/04/26 12:50:36;;;;;;;45.47;31.75;;;14.20;57.30;;;;;;5011781;28;20408;-75
2022/04/26 12:53:08;;;;;;;42.90;29.20;;;13.50;70.60;;;;;;5011077;28;20493;-74
2022/04/26 12:55:42;;;;;;;47.85;31.70;;;13.20;62.30;;;;;;5009795;28;20412;-74
2022/04/26 12:58:12;;;;;;;44.60;30.98;;;13.10;60.90;;;;;;5011921;28;20396;-75
2022/04/26 13:00:43;;;;;;;46.75;33.08;;;13.00;58.10;;;;;;5023196;28;20397;-75
2022/04/26 13:03:11;;;;;;;49.95;33.08;;;13.00;63.10;;;;;;5017758;28;20402;-75
2022/04/26 13:05:46;;;;;;;49.67;34.33;;;13.00;63.70;;;;;;5011424;28;20839;-74
2022/04/26 13:08:16;;;;;;;51.47;34.97;;;13.10;64.40;;;;;;5009364;28;20918;-76
2022/04/26 13:10:42;;;;;;;47.13;33.80;;;13.20;61.60;;;;;;5010105;28;20424;-74
2022/04/26 13:13:09;;;;;;;51.90;35.28;;;13.30;65.10;;;;;;5009530;28;20418;-76
2022/04/26 13:15:36;;;;;;;47.17;33.40;;;13.30;70.90;;;;;;5003226;28;20423;-75
2022/04/26 13:18:03;;;;;;;43.88;31.85;;;13.60;65.10;;;;;;5010332;28;20923;-75
2022/04/26 13:20:29;;;;;;;45.22;32.30;;;13.90;62.20;;;;;;5010650;28;20405;-75
2022/04/26 13:22:55;;;;;;;40.50;29.60;;;14.20;58.40;;;;;;5009826;28;21036;-74
2022/04/26 13:25:21;;;;;;;45.30;28.75;;;14.40;54.60;;;;;;5009981;28;20413;-75
2022/04/26 13:27:48;;;;;;;38.00;27.50;;;14.80;46.40;;;;;;5010275;28;21064;-75
2022/04/26 13:30:15;;;;;;;38.85;27.33;;;15.00;43.70;;;;;;5012023;28;20404;-75
2022/04/26 13:32:42;;;;;;;39.45;29.05;;;14.80;44.90;;;;;;5010975;28;20400;-76
2022/04/26 13:35:08;;;;;;;42.05;25.98;;;14.80;46.00;;;;;;5011039;28;20412;-76
2022/04/26 13:37:34;;;;;;;37.47;26.80;;;14.70;43.60;;;;;;5012675;28;20800;-76
2022/04/26 13:40:03;;;;;;;36.72;24.67;;;14.80;44.50;;;;;;5012688;28;20432;-75
2022/04/26 13:42:30;;;;;;;42.87;26.00;;;14.80;42.90;;;;;;5014776;28;20396;-74
2022/04/26 13:44:57;;;;;;;35.67;23.45;;;14.80;43.90;;;;;;5015065;28;20448;-74
2022/04/26 13:47:23;;;;;;;32.70;23.23;;;14.90;44.50;;;;;;5015186;28;20400;-74
2022/04/26 13:49:50;;;;;;;32.30;22.47;;;14.80;41.00;;;;;;5011285;28;20396;-73
2022/04/26 13:52:16;;;;;;;32.80;21.17;;;14.90;38.30;;;;;;5008876;28;20444;-73
2022/04/26 13:54:44;;;;;;;37.30;20.43;;;15.10;34.80;;;;;;5014605;28;20451;-74
2022/04/26 13:57:10;;;;;;;25.75;19.95;;;15.00;34.60;;;;;;5004227;28;20402;-77
2022/04/26 13:59:36;;;;;;;30.10;19.40;;;15.20;36.20;;;;;;5014840;28;20411;-76
2022/04/26 14:02:03;;;;;;;32.90;18.40;;;15.80;33.10;;;;;;5007856;28;20408;-76
2022/04/26 14:04:29;;;;;;;33.45;20.20;;;15.90;29.10;;;;;;5012656;28;20599;-75
2022/04/26 14:06:55;;;;;;;26.55;18.95;;;16.40;33.20;;;;;;5011863;28;20487;-74
2022/04/26 14:09:22;;;;;;;31.40;18.80;;;17.20;24.00;;;;;;5014355;28;20458;-75
2022/04/26 14:11:48;;;;;;;23.98;16.25;;;17.70;25.40;;;;;;5014157;28;20412;-74
2022/04/26 14:22:32;;;;;;;26.63;16.93;;;16.30;26.10;;;;;;5012800;28;21001;-75
2022/04/26 14:25:03;;;;;;;21.33;15.50;;;16.10;26.60;;;;;;4991351;28;21415;-76
2022/04/26 14:27:30;;;;;;;27.77;15.52;;;15.90;25.70;;;;;;5013851;28;20428;-75
2022/04/26 14:29:56;;;;;;;25.15;15.38;;;15.50;26.00;;;;;;5012406;28;20416;-77
2022/04/26 14:32:22;;;;;;;28.53;16.13;;;15.40;27.50;;;;;;5005582;28;20496;-75
2022/04/26 14:34:48;;;;;;;23.77;16.13;;;15.50;27.20;;;;;;5012660;28;20404;-75
2022/04/26 14:37:14;;;;;;;22.83;14.20;;;15.60;26.60;;;;;;5016262;28;20436;-75
2022/04/26 14:39:40;;;;;;;21.13;15.98;;;15.60;25.50;;;;;;5014997;28;20446;-78
2022/04/26 14:42:05;;;;;;;26.08;17.30;;;15.80;26.10;;;;;;5021462;28;20415;-76
2022/04/26 14:44:31;;;;;;;23.40;15.77;;;16.10;23.80;;;;;;5022547;28;20807;-79
2022/04/26 14:46:57;;;;;;;23.42;15.88;;;16.30;24.10;;;;;;5018526;28;20829;-76
2022/04/26 14:49:23;;;;;;;27.70;15.60;;;16.50;24.10;;;;;;5023755;28;20408;-76
2022/04/26 14:51:49;;;;;;;21.50;14.70;;;17.50;20.80;;;;;;5023886;28;20541;-76
2022/04/26 14:54:14;;;;;;;24.27;15.75;;;18.00;19.00;;;;;;5015465;28;20451;-76
2022/04/26 14:56:40;;;;;;;23.47;16.20;;;17.80;19.10;;;;;;5014603;28;20937;-76
2022/04/26 14:59:07;;;;;;;17.80;13.57;;;17.50;19.80;;;;;;5012343;28;20408;-76
2022/04/26 15:01:33;;;;;;;18.58;14.20;;;17.00;18.30;;;;;;5014260;28;20413;-76
2022/04/26 15:03:59;;;;;;;21.50;15.40;;;17.00;19.80;;;;;;5024274;28;20401;-79
2022/04/26 15:06:25;;;;;;;23.40;14.57;;;16.90;20.70;;;;;;5026574;28;20404;-76
2022/04/26 15:11:35;;;;;;;18.23;13.90;;;17.00;19.20;;;;;;5007271;28;20500;-75
2022/04/26 15:16:47;;;;;;;24.52;13.77;;;18.30;17.10;;;;;;5015764;28;20419;-76
2022/04/26 15:19:14;;;;;;;20.33;13.63;;;18.30;16.40;;;;;;5014016;28;20894;-77
2022/04/26 15:21:43;;;;;;;20.50;13.60;;;18.30;17.10;;;;;;5013529;28;20405;-76
2022/04/26 15:24:10;;;;;;;19.70;13.30;;;18.20;17.30;;;;;;5011963;28;20432;-77
2022/04/26 15:26:36;;;;;;;18.70;12.93;;;17.20;17.80;;;;;;5014818;28;20405;-78
2022/04/26 15:29:04;;;;;;;23.48;14.10;;;16.80;19.20;;;;;;5016613;28;20437;-75
2022/04/26 15:31:30;;;;;;;21.75;13.60;;;16.50;19.60;;;;;;5013023;28;20469;-75
2022/04/26 15:33:56;;;;;;;22.23;13.10;;;16.40;20.00;;;;;;5006092;28;20398;-77
2022/04/26 15:36:21;;;;;;;21.13;12.38;;;16.40;19.60;;;;;;5013518;28;20480;-77
2022/04/26 15:38:47;;;;;;;19.85;11.63;;;16.60;18.70;;;;;;5013168;28;20812;-77
2022/04/26 15:41:14;;;;;;;17.48;12.05;;;16.60;19.10;;;;;;5013271;28;20407;-76
2022/04/26 15:43:42;;;;;;;16.70;12.55;;;16.90;19.50;;;;;;5013119;28;20484;-76
2022/04/26 15:46:09;;;;;;;18.35;12.55;;;16.80;18.90;;;;;;5012220;28;20761;-76
2022/04/26 15:48:38;;;;;;;17.85;11.27;;;16.90;18.80;;;;;;5014723;28;20404;-76
2022/04/26 15:51:05;;;;;;;17.92;11.18;;;16.80;17.40;;;;;;5012521;28;20412;-77
2022/04/26 15:53:32;;;;;;;15.32;10.45;;;16.50;18.80;;;;;;5012606;28;20470;-76
2022/04/26 15:55:57;;;;;;;17.40;10.68;;;16.10;18.30;;;;;;5013122;28;20412;-76
2022/04/26 15:58:23;;;;;;;18.23;11.57;;;15.90;19.20;;;;;;5012576;28;20403;-76
2022/04/26 16:00:49;;;;;;;18.17;11.10;;;15.90;19.50;;;;;;5013286;28;20396;-76
2022/04/26 16:03:15;;;;;;;15.00;10.37;;;16.00;20.00;;;;;;5012424;28;20498;-76
2022/04/26 16:05:41;;;;;;;19.63;11.48;;;15.80;19.30;;;;;;5013960;28;20401;-77
2022/04/26 16:08:07;;;;;;;16.00;10.98;;;15.60;19.80;;;;;;5012401;28;20407;-78
2022/04/26 16:21:30;;;;;;;16.65;11.20;;;15.70;20.40;;;;;;5012373;28;20554;-76
2022/04/26 16:23:57;;;;;;;15.57;10.90;;;16.00;20.00;;;;;;5004635;28;20418;-76
2022/04/26 16:26:24;;;;;;;16.83;10.07;;;16.10;20.00;;;;;;5014878;28;20400;-78
2022/04/26 16:28:53;;;;;;;15.50;9.70;;;16.20;19.20;;;;;;5013314;28;20801;-76
2022/04/26 16:31:20;;;;;;;15.88;10.20;;;16.20;19.00;;;;;;5010305;28;20436;-74
2022/04/26 16:33:46;;;;;;;13.65;9.13;;;16.20;18.60;;;;;;5008320;28;20471;-74
2022/04/26 16:36:11;;;;;;;19.57;9.20;;;16.20;18.80;;;;;;5008728;28;20403;-76
2022/04/26 16:38:38;;;;;;;13.73;9.20;;;16.10;18.40;;;;;;5010509;28;20397;-74
2022/04/26 16:41:05;;;;;;;18.57;9.30;;;16.00;18.60;;;;;;5009141;28;20431;-76
2022/04/26 16:43:33;;;;;;;26.20;9.80;;;15.90;19.00;;;;;;5011971;28;20952;-75
2022/04/26 16:46:00;;;;;;;16.13;8.90;;;16.40;19.00;;;;;;5017300;28;20833;-73
2022/04/26 16:48:26;;;;;;;20.45;9.57;;;16.70;18.40;;;;;;5009147;28;20414;-75
2022/04/26 16:50:51;;;;;;;17.05;9.85;;;16.60;17.40;;;;;;5037630;28;20905;-75
2022/04/26 16:53:18;;;;;;;10.77;8.30;;;16.50;17.50;;;;;;5022841;28;20409;-76